Thunder radar more information blitzortung!


Radar de pluja more information rain snow radar


Visita la nostra xarxa de llocs de meteo:

Template documentation
and downloads

And another site



No particular awareness of the weather is required.    There are no Weather-warnings

Pagina Historial Weather Underground text

Diari Resum Abril 19, 2016 Unitats:  Mètric    Imperial   Tant
« Previous Dia
SegĂźent Dia »
Diari Setmana Mensual Anual Personalitzada
  Maxima: Minima: Media:
Temperatura: 22.4 °C 7.2 °C 14.9 °C
Punt de rosada: 10.1 °C 1.5 °C 5.4 °C
Humitat: 78 % 42 % 54 %
Wind Speed: 19.8 km/h 0.0 km/h 5.5 km/h
RĂ fegues de vent: 19.8 km/h - -
Vent:- - SE
Pression baro: 1022.9 hPa 1018.8 hPa -
Precipitacions: 0.0 mm    
Historical Graphs
 
 
Dades de taula per Abril 19, 2016
Temps Temperatura Punt de rosada Pression baro Vent Wind Speed RĂ fegues de vent Humitat Rainfall Rate (Hourly)
00:00 8.1 °C 3.9 °C 1021.9 hPa SSW 3.2 km/h 3.2 km/h 75 % 0.0 mm
00:02 15.8 °C 6.8 °C 1019.9 hPa ESE 16.7 km/h 16.7 km/h 55 % 0.0 mm
00:10 8.1 °C 4.1 °C 1021.9 hPa Calm   3.2 km/h 76 % 0.0 mm
00:20 8.1 °C 4.1 °C 1020.9 hPa WSW 3.2 km/h 3.2 km/h 76 % 0.0 mm
00:30 8.1 °C 4.1 °C 1021.9 hPa Calm     76 % 0.0 mm
00:40 8.1 °C 4.3 °C 1021.9 hPa ENE 1.6 km/h 3.2 km/h 77 % 0.0 mm
00:50 8.1 °C 4.3 °C 1021.9 hPa Calm   1.6 km/h 77 % 0.0 mm
01:00 8.0 °C 4.2 °C 1021.9 hPa Calm     77 % 0.0 mm
01:10 8.0 °C 4.2 °C 1021.9 hPa Calm     77 % 0.0 mm
01:20 7.9 °C 4.1 °C 1021.9 hPa NE 1.6 km/h 3.2 km/h 77 % 0.0 mm
01:30 7.8 °C 4.0 °C 1021.9 hPa Calm   1.6 km/h 77 % 0.0 mm
01:40 7.6 °C 3.8 °C 1021.9 hPa Calm   1.6 km/h 77 % 0.0 mm
01:50 7.5 °C 3.9 °C 1021.9 hPa Calm     78 % 0.0 mm
02:00 7.3 °C 3.7 °C 1021.9 hPa Calm     78 % 0.0 mm
02:10 7.2 °C 3.6 °C 1021.9 hPa Calm     78 % 0.0 mm
02:20 7.2 °C 3.6 °C 1021.9 hPa Calm   1.6 km/h 78 % 0.0 mm
02:30 7.4 °C 3.8 °C 1021.9 hPa SSE 1.6 km/h 1.6 km/h 78 % 0.0 mm
02:40 7.4 °C 3.6 °C 1021.9 hPa East 1.6 km/h 3.2 km/h 77 % 0.0 mm
02:50 7.3 °C 3.7 °C 1021.9 hPa SSW 1.6 km/h 3.2 km/h 78 % 0.0 mm
03:00 7.9 °C 4.3 °C 1021.9 hPa South 1.6 km/h 3.2 km/h 78 % 0.0 mm
03:10 8.0 °C 4.2 °C 1021.9 hPa SE 3.2 km/h 3.2 km/h 77 % 0.0 mm
03:20 8.5 °C 4.9 °C 1021.9 hPa South 3.2 km/h 3.2 km/h 78 % 0.0 mm
03:30 8.6 °C 4.6 °C 1021.9 hPa SSW 3.2 km/h 3.2 km/h 76 % 0.0 mm
03:40 8.6 °C 4.6 °C 1021.9 hPa SW 1.6 km/h 4.8 km/h 76 % 0.0 mm
03:50 9.1 °C 5.3 °C 1021.9 hPa Calm   3.2 km/h 77 % 0.0 mm
04:00 9.2 °C 5.2 °C 1021.9 hPa SW 3.2 km/h 4.8 km/h 76 % 0.0 mm
04:10 9.6 °C 5.4 °C 1021.9 hPa SW 3.2 km/h 3.2 km/h 75 % 0.0 mm
04:20 10.0 °C 5.8 °C 1021.9 hPa SW 1.6 km/h 3.2 km/h 75 % 0.0 mm
04:30 11.0 °C 6.6 °C 1021.9 hPa SW 3.2 km/h 4.8 km/h 74 % 0.0 mm
04:40 11.6 °C 6.5 °C 1021.9 hPa Calm   4.8 km/h 71 % 0.0 mm
04:50 12.5 °C 7.2 °C 1022.9 hPa ENE 3.2 km/h 4.8 km/h 70 % 0.0 mm
05:00 12.4 °C 6.4 °C 1021.9 hPa ENE 4.8 km/h 6.4 km/h 67 % 0.0 mm
05:10 13.4 °C 7.2 °C 1021.9 hPa East 3.2 km/h 4.8 km/h 66 % 0.0 mm
05:20 14.2 °C 7.5 °C 1021.9 hPa ESE 1.6 km/h 3.2 km/h 64 % 0.0 mm
05:30 14.6 °C 7.6 °C 1021.9 hPa SE 1.6 km/h 3.2 km/h 63 % 0.0 mm
05:40 14.5 °C 7.3 °C 1021.9 hPa NNE 3.2 km/h 6.4 km/h 62 % 0.0 mm
05:50 14.5 °C 6.8 °C 1021.9 hPa North 4.8 km/h 4.8 km/h 60 % 0.0 mm
06:00 15.1 °C 7.4 °C 1021.9 hPa WSW 1.6 km/h 3.2 km/h 60 % 0.0 mm
11:02 15.1 °C 7.4 °C 1021.9 hPa ESE 16.7 km/h 16.7 km/h 60 % 0.0 mm
11:07 15.6 °C 7.3 °C 1021.9 hPa South 2.6 km/h 2.6 km/h 58 % 0.0 mm
11:12 15.8 °C 7.3 °C 1021.9 hPa South 2.6 km/h 2.6 km/h 57 % 0.0 mm
11:17 16.2 °C 7.7 °C 1021.9 hPa SW 3.7 km/h 3.7 km/h 57 % 0.0 mm
11:22 16.2 °C 7.7 °C 1021.9 hPa SSE 5.6 km/h   57 % 0.0 mm
11:27 16.5 °C 7.7 °C 1021.9 hPa Calm     56 % 0.0 mm
11:32 16.4 °C 7.8 °C 1021.9 hPa Calm     57 % 0.0 mm
11:37 16.3 °C 7.5 °C 1021.9 hPa SSW 1.9 km/h 3.9 km/h 56 % 0.0 mm
11:42 17.2 °C 8.1 °C 1021.9 hPa SSW 1.9 km/h 3.9 km/h 55 % 0.0 mm
11:47 17.2 °C 7.8 °C 1021.9 hPa SSW 1.9 km/h 3.9 km/h 54 % 0.0 mm
11:52 16.9 °C 8.1 °C 1021.9 hPa SSW 1.9 km/h 3.9 km/h 56 % 0.0 mm
11:57 17.2 °C 7.8 °C 1021.9 hPa SSW 1.9 km/h 3.9 km/h 54 % 0.0 mm
12:02 17.5 °C 8.1 °C 1021.9 hPa SSW 1.9 km/h 3.9 km/h 54 % 0.0 mm
12:07 17.6 °C 8.2 °C 1021.9 hPa SSW 1.9 km/h 3.9 km/h 54 % 0.0 mm
12:17 17.8 °C 8.1 °C 1021.9 hPa NNE 5.6 km/h 5.6 km/h 53 % 0.0 mm
12:22 17.7 °C 8.3 °C 1021.9 hPa ENE 7.4 km/h 7.4 km/h 54 % 0.0 mm
12:27 17.9 °C 8.2 °C 1021.9 hPa ESE 7.4 km/h 7.4 km/h 53 % 0.0 mm
12:32 17.7 °C 8.0 °C 1021.9 hPa ESE 9.3 km/h 9.3 km/h 53 % 0.0 mm
12:37 17.8 °C 8.1 °C 1021.9 hPa NE 11.1 km/h 11.1 km/h 53 % 0.0 mm
12:42 18.1 °C 8.4 °C 1021.9 hPa SW 3.9 km/h 3.9 km/h 53 % 0.0 mm
12:47 18.5 °C 8.7 °C 1021.9 hPa NE 7.4 km/h 7.4 km/h 53 % 0.0 mm
12:52 18.6 °C 8.8 °C 1021.9 hPa West 3.7 km/h 3.7 km/h 53 % 0.0 mm
12:57 18.9 °C 9.1 °C 1021.9 hPa West 4.2 km/h 4.2 km/h 53 % 0.0 mm
13:02 19.3 °C 9.2 °C 1021.9 hPa NW 1.9 km/h 1.9 km/h 52 % 0.0 mm
13:12 19.4 °C 9.0 °C 1021.9 hPa ESE 9.7 km/h 9.7 km/h 51 % 0.0 mm
13:17 19.6 °C 9.2 °C 1020.9 hPa South 3.7 km/h 3.7 km/h 51 % 0.0 mm
13:22 19.5 °C 8.8 °C 1020.9 hPa SSW 7.4 km/h 7.4 km/h 50 % 0.0 mm
13:27 20.0 °C 9.6 °C 1020.9 hPa WNW 9.3 km/h 9.3 km/h 51 % 0.0 mm
13:32 20.1 °C 9.3 °C 1020.9 hPa West 3.7 km/h 3.7 km/h 50 % 0.0 mm
13:37 20.3 °C 9.6 °C 1020.9 hPa NNE 5.6 km/h 5.6 km/h 50 % 0.0 mm
13:42 20.3 °C 9.2 °C 1020.9 hPa NNE 5.6 km/h 5.6 km/h 49 % 0.0 mm
13:47 20.5 °C 9.4 °C 1021.9 hPa ESE 7.4 km/h 7.4 km/h 49 % 0.0 mm
13:52 20.8 °C 9.7 °C 1021.9 hPa ESE 11.1 km/h 11.1 km/h 49 % 0.0 mm
13:57 20.7 °C 9.6 °C 1021.9 hPa SSE 9.3 km/h 9.3 km/h 49 % 0.0 mm
14:02 21.0 °C 9.6 °C 1020.9 hPa NNE 9.5 km/h 9.5 km/h 48 % 0.0 mm
14:07 21.2 °C 9.7 °C 1020.9 hPa South 5.6 km/h 5.6 km/h 48 % 0.0 mm
14:12 21.4 °C 9.6 °C 1020.9 hPa ENE 3.7 km/h 3.7 km/h 47 % 0.0 mm
14:17 21.9 °C 10.1 °C 1020.9 hPa SSE 8.7 km/h 8.7 km/h 47 % 0.0 mm
14:22 21.6 °C 9.8 °C 1020.9 hPa SSE 14.8 km/h 14.8 km/h 47 % 0.0 mm
14:27 21.5 °C 9.4 °C 1020.9 hPa ESE 7.4 km/h 7.4 km/h 46 % 0.0 mm
14:32 21.7 °C 9.6 °C 1020.9 hPa East 6.9 km/h 6.9 km/h 46 % 0.0 mm
14:37 21.5 °C 9.1 °C 1020.9 hPa ESE 7.4 km/h 7.4 km/h 45 % 0.0 mm
14:47 21.4 °C 8.9 °C 1019.9 hPa East 9.3 km/h 9.3 km/h 45 % 0.0 mm
14:52 21.5 °C 8.7 °C 1019.9 hPa South 7.4 km/h 7.4 km/h 44 % 0.0 mm
14:57 22.1 °C 9.6 °C 1019.9 hPa South 3.7 km/h 3.7 km/h 45 % 0.0 mm
15:02 22.3 °C 9.4 °C 1019.9 hPa SSE 7.9 km/h 7.9 km/h 44 % 0.0 mm
15:07 22.4 °C 9.6 °C 1019.9 hPa SW 5.8 km/h 5.8 km/h 44 % 0.0 mm
15:12 21.9 °C 8.7 °C 1019.9 hPa SSE 13.0 km/h 13.0 km/h 43 % 0.0 mm
15:17 21.3 °C 8.2 °C 1019.9 hPa East 11.1 km/h 11.1 km/h 43 % 0.0 mm
15:22 21.4 °C 8.3 °C 1019.9 hPa ENE 12.2 km/h 12.2 km/h 43 % 0.0 mm
15:27 21.2 °C 8.1 °C 1019.9 hPa ESE 9.3 km/h 9.3 km/h 43 % 0.0 mm
15:32 21.1 °C 8.0 °C 1019.9 hPa ESE 11.1 km/h 11.1 km/h 43 % 0.0 mm
15:37 21.0 °C 7.6 °C 1019.9 hPa South 9.3 km/h 9.3 km/h 42 % 0.0 mm
15:42 20.8 °C 8.1 °C 1019.9 hPa ESE 5.6 km/h 6.1 km/h 44 % 0.0 mm
15:47 21.0 °C 7.9 °C 1019.9 hPa South 5.6 km/h 5.6 km/h 43 % 0.0 mm
15:52 21.4 °C 8.6 °C 1019.9 hPa SW 9.3 km/h 9.3 km/h 44 % 0.0 mm
15:57 20.8 °C 8.1 °C 1019.9 hPa WSW 13.0 km/h 13.0 km/h 44 % 0.0 mm
16:07 20.1 °C 7.4 °C 1019.9 hPa SSW 13.0 km/h 13.0 km/h 44 % 0.0 mm
16:12 19.8 °C 7.2 °C 1019.9 hPa WSW 11.1 km/h 11.1 km/h 44 % 0.0 mm
16:17 19.3 °C 6.4 °C 1020.9 hPa South 13.0 km/h 13.0 km/h 43 % 0.0 mm
16:22 19.5 °C 6.6 °C 1020.9 hPa SSW 13.0 km/h 13.0 km/h 43 % 0.0 mm
16:27 19.5 °C 6.2 °C 1020.9 hPa SSW 13.7 km/h 13.7 km/h 42 % 0.0 mm
16:32 19.4 °C 6.2 °C 1019.9 hPa WSW 11.1 km/h 11.1 km/h 42 % 0.0 mm
16:37 19.7 °C 6.4 °C 1019.9 hPa ESE 9.3 km/h 9.3 km/h 42 % 0.0 mm
16:42 19.7 °C 6.4 °C 1019.9 hPa SW 10.3 km/h 10.3 km/h 42 % 0.0 mm
16:47 19.1 °C 5.9 °C 1019.9 hPa SW 14.8 km/h 14.8 km/h 42 % 0.0 mm
16:52 19.1 °C 5.9 °C 1019.9 hPa SW 11.1 km/h 11.1 km/h 42 % 0.0 mm
16:57 19.0 °C 5.8 °C 1019.9 hPa WSW 9.3 km/h 9.3 km/h 42 % 0.0 mm
17:02 18.7 °C 5.5 °C 1019.9 hPa South 11.1 km/h 11.1 km/h 42 % 0.0 mm
17:07 18.8 °C 5.6 °C 1019.9 hPa West 5.0 km/h 5.0 km/h 42 % 0.0 mm
17:12 19.1 °C 5.9 °C 1019.9 hPa SSW 7.4 km/h 7.4 km/h 42 % 0.0 mm
17:17 18.9 °C 5.7 °C 1019.9 hPa WSW 9.3 km/h 9.3 km/h 42 % 0.0 mm
17:22 18.9 °C 5.7 °C 1019.9 hPa WSW 7.9 km/h 7.9 km/h 42 % 0.0 mm
17:27 18.7 °C 5.5 °C 1019.9 hPa WSW 13.0 km/h 13.0 km/h 42 % 0.0 mm
17:32 18.4 °C 5.2 °C 1019.9 hPa WSW 11.9 km/h 11.9 km/h 42 % 0.0 mm
17:37 18.3 °C 5.2 °C 1019.9 hPa SSW 7.4 km/h 7.4 km/h 42 % 0.0 mm
17:42 18.2 °C 5.1 °C 1019.9 hPa SSW 7.4 km/h 7.4 km/h 42 % 0.0 mm
17:47 17.7 °C 4.9 °C 1018.8 hPa ESE 11.1 km/h 11.1 km/h 43 % 0.0 mm
17:53 17.1 °C 4.4 °C 1018.8 hPa ESE 19.8 km/h 19.8 km/h 43 % 0.0 mm
17:55 12.4 °C 3.3 °C 1020.9 hPa NE 3.2 km/h 3.2 km/h 54 % 0.0 mm
17:58 16.5 °C 4.5 °C 1018.8 hPa ESE 16.7 km/h 16.7 km/h 45 % 0.0 mm
18:03 16.2 °C 4.2 °C 1019.9 hPa ESE 16.4 km/h 16.4 km/h 45 % 0.0 mm
18:05 12.4 °C 3.6 °C 1020.9 hPa NE 3.2 km/h 3.2 km/h 55 % 0.0 mm
18:08 16.0 °C 4.1 °C 1019.9 hPa ENE 13.0 km/h 13.0 km/h 45 % 0.0 mm
18:13 15.7 °C 3.8 °C 1019.9 hPa ENE 14.8 km/h 14.8 km/h 45 % 0.0 mm
18:15 12.3 °C 3.5 °C 1020.9 hPa NE 1.6 km/h 3.2 km/h 55 % 0.0 mm
18:18 15.6 °C 4.0 °C 1019.9 hPa ENE 11.9 km/h 11.9 km/h 46 % 0.0 mm
18:23 15.6 °C 4.0 °C 1019.9 hPa ESE 11.1 km/h 11.1 km/h 46 % 0.0 mm
18:25 12.2 °C 3.7 °C 1020.9 hPa ENE 1.6 km/h 3.2 km/h 56 % 0.0 mm
18:28 15.4 °C 3.8 °C 1019.9 hPa ESE 7.9 km/h 7.9 km/h 46 % 0.0 mm
18:33 15.3 °C 3.7 °C 1019.9 hPa ESE 7.4 km/h 7.4 km/h 46 % 0.0 mm
18:35 12.2 °C 3.7 °C 1020.9 hPa ENE 1.6 km/h 3.2 km/h 56 % 0.0 mm
18:38 15.2 °C 3.7 °C 1019.9 hPa ENE 11.1 km/h 11.1 km/h 46 % 0.0 mm
18:43 15.0 °C 3.8 °C 1019.9 hPa ESE 9.3 km/h 9.3 km/h 47 % 0.0 mm
18:45 12.1 °C 3.6 °C 1020.9 hPa NE 1.6 km/h 3.2 km/h 56 % 0.0 mm
18:48 14.9 °C 3.7 °C 1018.8 hPa ESE 9.3 km/h 9.3 km/h 47 % 0.0 mm
18:53 14.9 °C 3.7 °C 1018.8 hPa SE 11.1 km/h 11.1 km/h 47 % 0.0 mm
18:55 12.1 °C 3.8 °C 1020.9 hPa NE 1.6 km/h 3.2 km/h 57 % 0.0 mm
19:03 14.7 °C 3.5 °C 1019.9 hPa SE 9.3 km/h 9.3 km/h 47 % 0.0 mm
19:05 12.2 °C 3.9 °C 1020.9 hPa NE 1.6 km/h 3.2 km/h 57 % 0.0 mm
19:08 14.7 °C 3.5 °C 1019.9 hPa SSW 7.4 km/h 7.4 km/h 47 % 0.0 mm
19:13 14.8 °C 3.9 °C 1019.9 hPa NE 7.4 km/h 7.4 km/h 48 % 0.0 mm
19:15 12.2 °C 3.7 °C 1020.9 hPa ENE 3.2 km/h 3.2 km/h 56 % 0.0 mm
19:18 14.7 °C 3.8 °C 1020.9 hPa SE 7.4 km/h 7.4 km/h 48 % 0.0 mm
19:23 14.7 °C 3.8 °C 1020.9 hPa ENE 7.4 km/h 7.4 km/h 48 % 0.0 mm
19:25 12.3 °C 3.8 °C 1020.9 hPa ENE 3.2 km/h 3.2 km/h 56 % 0.0 mm
19:28 14.6 °C 3.7 °C 1020.9 hPa East 11.1 km/h 11.1 km/h 48 % 0.0 mm
19:33 14.5 °C 3.6 °C 1019.9 hPa ESE 5.8 km/h 7.2 km/h 48 % 0.0 mm
19:35 12.3 °C 3.5 °C 1019.9 hPa ENE 1.6 km/h 3.2 km/h 55 % 0.0 mm
19:38 14.4 °C 3.5 °C 1019.9 hPa ENE 11.1 km/h 11.1 km/h 48 % 0.0 mm
19:43 14.4 °C 3.8 °C 1019.9 hPa ESE 9.3 km/h 9.3 km/h 49 % 0.0 mm
19:45 12.2 °C 3.4 °C 1019.9 hPa Calm   1.6 km/h 55 % 0.0 mm
19:48 14.3 °C 3.7 °C 1018.8 hPa ENE 9.3 km/h 9.7 km/h 49 % 0.0 mm
19:53 14.2 °C 3.6 °C 1018.8 hPa ENE 9.3 km/h 9.3 km/h 49 % 0.0 mm
19:55 12.0 °C 3.2 °C 1019.9 hPa Calm   1.6 km/h 55 % 0.0 mm
19:58 14.2 °C 3.6 °C 1018.8 hPa ESE 9.3 km/h 9.3 km/h 49 % 0.0 mm
20:03 14.1 °C 3.6 °C 1019.9 hPa ESE 11.1 km/h 11.1 km/h 49 % 0.0 mm
20:05 11.5 °C 2.8 °C 1020.9 hPa SW 3.2 km/h 3.2 km/h 55 % 0.0 mm
20:08 14.1 °C 3.8 °C 1019.9 hPa East 7.4 km/h 7.4 km/h 50 % 0.0 mm
20:13 14.1 °C 3.8 °C 1019.9 hPa ESE 7.4 km/h 7.4 km/h 50 % 0.0 mm
20:15 11.6 °C 2.8 °C 1020.9 hPa Calm   4.8 km/h 55 % 0.0 mm
20:18 14.0 °C 3.7 °C 1020.9 hPa WSW 4.2 km/h 4.2 km/h 50 % 0.0 mm
20:23 14.0 °C 3.7 °C 1020.9 hPa ESE 4.7 km/h 5.3 km/h 50 % 0.0 mm
20:25 11.6 °C 2.8 °C 1020.9 hPa WSW 1.6 km/h 3.2 km/h 55 % 0.0 mm
20:28 13.9 °C 3.6 °C 1020.9 hPa ESE 5.6 km/h 5.6 km/h 50 % 0.0 mm
20:33 13.8 °C 3.6 °C 1020.9 hPa SSE 2.3 km/h   50 % 0.0 mm
20:35 11.6 °C 2.8 °C 1019.9 hPa West 1.6 km/h 3.2 km/h 55 % 0.0 mm
20:38 13.7 °C 3.7 °C 1020.9 hPa ESE 5.6 km/h 5.6 km/h 51 % 0.0 mm
20:45 11.8 °C 2.8 °C 1019.9 hPa NNW 1.6 km/h 6.4 km/h 54 % 0.0 mm
20:48 13.5 °C 3.6 °C 1020.9 hPa ESE 5.3 km/h 5.3 km/h 51 % 0.0 mm
20:53 13.5 °C 3.6 °C 1020.9 hPa ESE 5.6 km/h 5.6 km/h 51 % 0.0 mm
20:55 12.0 °C 2.7 °C 1019.9 hPa NE 4.8 km/h 4.8 km/h 53 % 0.0 mm
20:58 13.4 °C 3.4 °C 1020.9 hPa ESE 5.6 km/h 5.6 km/h 51 % 0.0 mm
21:03 13.4 °C 3.4 °C 1020.9 hPa ENE 5.6 km/h 5.6 km/h 51 % 0.0 mm
21:05 11.9 °C 2.6 °C 1019.9 hPa Calm   1.6 km/h 53 % 0.0 mm
21:08 13.3 °C 3.4 °C 1020.9 hPa NE 5.6 km/h 5.6 km/h 51 % 0.0 mm
21:13 13.2 °C 3.6 °C 1020.9 hPa NE 1.9 km/h   52 % 0.0 mm
21:15 12.0 °C 2.7 °C 1019.9 hPa NE 1.6 km/h 4.8 km/h 53 % 0.0 mm
21:18 13.2 °C 3.6 °C 1020.9 hPa NNE 1.4 km/h   52 % 0.0 mm
21:23 13.1 °C 3.4 °C 1020.9 hPa Calm     52 % 0.0 mm
21:25 11.9 °C 2.6 °C 1019.9 hPa NE 1.6 km/h 1.6 km/h 53 % 0.0 mm
21:28 13.0 °C 3.4 °C 1020.9 hPa NNE 2.6 km/h 2.6 km/h 52 % 0.0 mm
21:33 13.1 °C 3.4 °C 1021.9 hPa NNE 3.9 km/h 3.9 km/h 52 % 0.0 mm
21:35 11.9 °C 2.6 °C 1019.9 hPa North 1.6 km/h 1.6 km/h 53 % 0.0 mm
21:43 13.1 °C 3.7 °C 1021.9 hPa NNE 3.9 km/h 3.9 km/h 53 % 0.0 mm
21:45 11.8 °C 2.5 °C 1019.9 hPa Calm   1.6 km/h 53 % 0.0 mm
21:48 13.2 °C 3.8 °C 1020.9 hPa NE 3.7 km/h 3.7 km/h 53 % 0.0 mm
21:55 11.6 °C 2.1 °C 1019.9 hPa Calm   3.2 km/h 52 % 0.0 mm
21:58 13.1 °C 3.7 °C 1020.9 hPa ENE 3.9 km/h 3.9 km/h 53 % 0.0 mm
22:03 13.1 °C 3.7 °C 1020.9 hPa NE 6.1 km/h 6.1 km/h 53 % 0.0 mm
22:05 11.7 °C 2.2 °C 1019.9 hPa Calm   3.2 km/h 52 % 0.0 mm
22:08 13.1 °C 3.7 °C 1020.9 hPa NE 5.6 km/h 5.6 km/h 53 % 0.0 mm
22:13 13.0 °C 3.6 °C 1020.9 hPa NNE 7.4 km/h 7.4 km/h 53 % 0.0 mm
22:15 11.7 °C 2.2 °C 1019.9 hPa Calm   1.6 km/h 52 % 0.0 mm
22:18 13.0 °C 3.6 °C 1020.9 hPa NNE 6.1 km/h 6.1 km/h 53 % 0.0 mm
22:23 13.0 °C 3.9 °C 1020.9 hPa NE 3.7 km/h 3.9 km/h 54 % 0.0 mm
22:25 11.7 °C 2.2 °C 1019.9 hPa Calm     52 % 0.0 mm
22:33 12.7 °C 3.6 °C 1020.9 hPa NE 5.8 km/h 5.8 km/h 54 % 0.0 mm
22:35 11.6 °C 2.1 °C 1019.9 hPa WSW 1.6 km/h 3.2 km/h 52 % 0.0 mm
22:38 12.6 °C 3.6 °C 1020.9 hPa NNW 5.0 km/h 5.0 km/h 54 % 0.0 mm
22:43 12.5 °C 3.4 °C 1020.9 hPa NNE 5.6 km/h 5.6 km/h 54 % 0.0 mm
22:45 11.7 °C 1.9 °C 1019.9 hPa Calm   1.6 km/h 51 % 0.0 mm
22:48 12.4 °C 3.3 °C 1020.9 hPa North 5.0 km/h 5.0 km/h 54 % 0.0 mm
22:55 11.6 °C 1.8 °C 1019.9 hPa Calm     51 % 0.0 mm
23:05 11.6 °C 2.1 °C 1019.9 hPa North 1.6 km/h 4.8 km/h 52 % 0.0 mm
23:15 11.6 °C 2.1 °C 1018.8 hPa NE 1.6 km/h 3.2 km/h 52 % 0.0 mm
23:25 11.5 °C 1.7 °C 1018.8 hPa Calm   4.8 km/h 51 % 0.0 mm
23:35 11.5 °C 1.7 °C 1018.8 hPa NNE 4.8 km/h 4.8 km/h 51 % 0.0 mm
23:45 11.3 °C 1.5 °C 1018.8 hPa Calm   1.6 km/h 51 % 0.0 mm
23:55 11.3 °C 1.5 °C 1018.8 hPa NNW 1.6 km/h 3.2 km/h 51 % 0.0 mm
Meteo Sesrovires
Elogis d' Weather Underground - 3.5 mb

Guio original per  Jim McMurry - jmcmurry@mwt.net Adaptat per a la plantilla per  Wim van der Kuil - Leuven-Template.eu

Trobareu la nostra informacio del temps tambe a:

Weather Underground

AWEKAS